sensor_id;sensor_type;location;lat;lon;timestamp;P1;durP1;ratioP1;P2;durP2;ratioP2
29848;SDS011;16728;50.832;5.590;2024-03-23T00:55:38;11.38;;;3.42;;
29848;SDS011;16728;50.832;5.590;2024-03-23T00:58:39;8.63;;;2.95;;
29848;SDS011;16728;50.832;5.590;2024-03-23T01:01:40;10.27;;;3.00;;
29848;SDS011;16728;50.832;5.590;2024-03-23T01:04:41;4.95;;;2.05;;
29848;SDS011;16728;50.832;5.590;2024-03-23T01:07:43;6.28;;;1.70;;
29848;SDS011;16728;50.832;5.590;2024-03-23T01:10:53;7.38;;;1.90;;
29848;SDS011;16728;50.832;5.590;2024-03-23T01:13:55;6.97;;;1.90;;
29848;SDS011;16728;50.832;5.590;2024-03-23T01:16:56;9.77;;;2.63;;
29848;SDS011;16728;50.832;5.590;2024-03-23T01:19:58;7.10;;;2.08;;
29848;SDS011;16728;50.832;5.590;2024-03-23T01:22:59;5.32;;;1.83;;
29848;SDS011;16728;50.832;5.590;2024-03-23T01:26:00;9.35;;;2.60;;
29848;SDS011;16728;50.832;5.590;2024-03-23T01:29:01;5.63;;;2.25;;
29848;SDS011;16728;50.832;5.590;2024-03-23T01:32:03;7.95;;;2.40;;
29848;SDS011;16728;50.832;5.590;2024-03-23T01:35:04;9.57;;;2.45;;
29848;SDS011;16728;50.832;5.590;2024-03-23T01:38:05;9.77;;;1.98;;
29848;SDS011;16728;50.832;5.590;2024-03-23T01:41:07;8.20;;;2.25;;
29848;SDS011;16728;50.832;5.590;2024-03-23T01:44:08;10.18;;;2.42;;
29848;SDS011;16728;50.832;5.590;2024-03-23T01:47:11;9.82;;;2.63;;
29848;SDS011;16728;50.832;5.590;2024-03-23T01:50:13;7.65;;;2.05;;
29848;SDS011;16728;50.832;5.590;2024-03-23T01:53:14;8.90;;;2.42;;
29848;SDS011;16728;50.832;5.590;2024-03-23T01:59:18;14.65;;;2.45;;
29848;SDS011;16728;50.832;5.590;2024-03-23T02:02:20;11.00;;;2.40;;
29848;SDS011;16728;50.832;5.590;2024-03-23T02:05:21;10.07;;;2.33;;
29848;SDS011;16728;50.832;5.590;2024-03-23T02:08:23;6.63;;;2.53;;
29848;SDS011;16728;50.832;5.590;2024-03-23T02:11:24;12.18;;;2.72;;
29848;SDS011;16728;50.832;5.590;2024-03-23T02:14:26;6.00;;;2.00;;
29848;SDS011;16728;50.832;5.590;2024-03-23T02:17:27;10.00;;;2.63;;
29848;SDS011;16728;50.832;5.590;2024-03-23T02:20:29;6.85;;;3.00;;
29848;SDS011;16728;50.832;5.590;2024-03-23T02:23:30;10.45;;;3.03;;
29848;SDS011;16728;50.832;5.590;2024-03-23T02:26:31;10.18;;;2.30;;
29848;SDS011;16728;50.832;5.590;2024-03-23T02:29:32;9.15;;;3.00;;
29848;SDS011;16728;50.832;5.590;2024-03-23T02:32:34;10.18;;;2.30;;
29848;SDS011;16728;50.832;5.590;2024-03-23T02:35:35;11.02;;;2.67;;
29848;SDS011;16728;50.832;5.590;2024-03-23T02:38:36;12.05;;;2.88;;
29848;SDS011;16728;50.832;5.590;2024-03-23T02:41:38;11.02;;;2.47;;
29848;SDS011;16728;50.832;5.590;2024-03-23T02:44:39;11.52;;;2.55;;
29848;SDS011;16728;50.832;5.590;2024-03-23T02:47:40;9.73;;;3.28;;
29848;SDS011;16728;50.832;5.590;2024-03-23T02:50:41;12.60;;;3.10;;
29848;SDS011;16728;50.832;5.590;2024-03-23T02:53:43;7.03;;;2.40;;
29848;SDS011;16728;50.832;5.590;2024-03-23T02:56:44;10.80;;;3.17;;
29848;SDS011;16728;50.832;5.590;2024-03-23T02:59:45;10.05;;;2.83;;
29848;SDS011;16728;50.832;5.590;2024-03-23T03:02:46;13.15;;;3.20;;
29848;SDS011;16728;50.832;5.590;2024-03-23T03:05:48;11.68;;;2.90;;
29848;SDS011;16728;50.832;5.590;2024-03-23T03:08:49;13.95;;;2.85;;
29848;SDS011;16728;50.832;5.590;2024-03-23T03:11:51;9.93;;;2.78;;
29848;SDS011;16728;50.832;5.590;2024-03-23T03:14:52;7.65;;;2.30;;
29848;SDS011;16728;50.832;5.590;2024-03-23T03:17:53;10.80;;;2.90;;
29848;SDS011;16728;50.832;5.590;2024-03-23T03:20:55;7.53;;;2.67;;
29848;SDS011;16728;50.832;5.590;2024-03-23T03:23:56;14.18;;;3.03;;
29848;SDS011;16728;50.832;5.590;2024-03-23T03:26:57;10.18;;;2.65;;
29848;SDS011;16728;50.832;5.590;2024-03-23T03:29:59;10.57;;;2.58;;
29848;SDS011;16728;50.832;5.590;2024-03-23T03:36:03;11.10;;;2.97;;
29848;SDS011;16728;50.832;5.590;2024-03-23T03:39:04;9.95;;;3.00;;
29848;SDS011;16728;50.832;5.590;2024-03-23T03:42:07;7.78;;;2.97;;
29848;SDS011;16728;50.832;5.590;2024-03-23T03:45:08;13.50;;;3.30;;
29848;SDS011;16728;50.832;5.590;2024-03-23T03:48:09;7.68;;;2.97;;
29848;SDS011;16728;50.832;5.590;2024-03-23T03:51:10;8.38;;;2.65;;
29848;SDS011;16728;50.832;5.590;2024-03-23T03:54:12;12.95;;;2.95;;
29848;SDS011;16728;50.832;5.590;2024-03-23T03:57:13;9.82;;;3.15;;
29848;SDS011;16728;50.832;5.590;2024-03-23T04:00:14;9.35;;;2.83;;
29848;SDS011;16728;50.832;5.590;2024-03-23T04:03:16;9.90;;;3.25;;
29848;SDS011;16728;50.832;5.590;2024-03-23T04:06:20;10.60;;;3.22;;
29848;SDS011;16728;50.832;5.590;2024-03-23T04:09:21;8.02;;;2.97;;
29848;SDS011;16728;50.832;5.590;2024-03-23T04:12:23;12.10;;;3.38;;
29848;SDS011;16728;50.832;5.590;2024-03-23T04:15:24;14.40;;;3.55;;
29848;SDS011;16728;50.832;5.590;2024-03-23T04:18:26;8.90;;;3.40;;
29848;SDS011;16728;50.832;5.590;2024-03-23T04:21:27;13.70;;;3.60;;
29848;SDS011;16728;50.832;5.590;2024-03-23T04:24:28;12.48;;;3.50;;
29848;SDS011;16728;50.832;5.590;2024-03-23T04:27:30;10.40;;;3.22;;
29848;SDS011;16728;50.832;5.590;2024-03-23T04:30:31;6.85;;;2.70;;
29848;SDS011;16728;50.832;5.590;2024-03-23T04:33:32;12.95;;;3.45;;
29848;SDS011;16728;50.832;5.590;2024-03-23T04:36:34;9.25;;;3.00;;
29848;SDS011;16728;50.832;5.590;2024-03-23T04:39:35;10.43;;;3.50;;
29848;SDS011;16728;50.832;5.590;2024-03-23T04:42:37;6.00;;;3.05;;
29848;SDS011;16728;50.832;5.590;2024-03-23T04:45:38;12.77;;;3.78;;
29848;SDS011;16728;50.832;5.590;2024-03-23T04:48:39;9.90;;;2.83;;
29848;SDS011;16728;50.832;5.590;2024-03-23T04:51:41;13.02;;;3.75;;
29848;SDS011;16728;50.832;5.590;2024-03-23T04:54:46;11.48;;;3.67;;
29848;SDS011;16728;50.832;5.590;2024-03-23T04:57:47;11.10;;;3.53;;
29848;SDS011;16728;50.832;5.590;2024-03-23T05:00:52;10.95;;;3.55;;
29848;SDS011;16728;50.832;5.590;2024-03-23T05:03:54;13.13;;;4.28;;
29848;SDS011;16728;50.832;5.590;2024-03-23T05:06:55;11.13;;;3.92;;
29848;SDS011;16728;50.832;5.590;2024-03-23T05:09:57;13.52;;;4.60;;
29848;SDS011;16728;50.832;5.590;2024-03-23T05:12:58;13.20;;;4.03;;
29848;SDS011;16728;50.832;5.590;2024-03-23T05:15:59;8.77;;;4.25;;
29848;SDS011;16728;50.832;5.590;2024-03-23T05:19:01;9.75;;;4.13;;
29848;SDS011;16728;50.832;5.590;2024-03-23T05:22:02;11.40;;;5.10;;
29848;SDS011;16728;50.832;5.590;2024-03-23T05:25:03;15.15;;;5.03;;
29848;SDS011;16728;50.832;5.590;2024-03-23T05:28:05;15.88;;;5.82;;
29848;SDS011;16728;50.832;5.590;2024-03-23T05:31:07;12.40;;;6.07;;
29848;SDS011;16728;50.832;5.590;2024-03-23T05:34:09;10.10;;;5.82;;
29848;SDS011;16728;50.832;5.590;2024-03-23T05:37:10;13.27;;;5.75;;
29848;SDS011;16728;50.832;5.590;2024-03-23T05:40:11;14.70;;;6.00;;
29848;SDS011;16728;50.832;5.590;2024-03-23T05:43:15;15.68;;;6.68;;
29848;SDS011;16728;50.832;5.590;2024-03-23T05:46:17;14.77;;;5.75;;
29848;SDS011;16728;50.832;5.590;2024-03-23T05:49:18;15.55;;;6.47;;
29848;SDS011;16728;50.832;5.590;2024-03-23T05:52:20;21.25;;;6.57;;
29848;SDS011;16728;50.832;5.590;2024-03-23T05:55:21;14.18;;;6.43;;
29848;SDS011;16728;50.832;5.590;2024-03-23T05:58:23;16.73;;;5.88;;
29848;SDS011;16728;50.832;5.590;2024-03-23T06:01:24;14.18;;;6.72;;
29848;SDS011;16728;50.832;5.590;2024-03-23T06:04:28;13.88;;;6.28;;
29848;SDS011;16728;50.832;5.590;2024-03-23T06:07:30;16.70;;;6.65;;
29848;SDS011;16728;50.832;5.590;2024-03-23T06:10:32;17.45;;;7.05;;
29848;SDS011;16728;50.832;5.590;2024-03-23T06:13:33;18.48;;;6.50;;
29848;SDS011;16728;50.832;5.590;2024-03-23T06:16:35;14.68;;;6.72;;
29848;SDS011;16728;50.832;5.590;2024-03-23T06:19:37;17.45;;;6.05;;
29848;SDS011;16728;50.832;5.590;2024-03-23T06:22:38;13.52;;;6.43;;
29848;SDS011;16728;50.832;5.590;2024-03-23T06:25:39;16.77;;;6.68;;
29848;SDS011;16728;50.832;5.590;2024-03-23T06:28:41;14.73;;;6.68;;
29848;SDS011;16728;50.832;5.590;2024-03-23T06:31:42;17.25;;;7.25;;
29848;SDS011;16728;50.832;5.590;2024-03-23T06:34:43;12.93;;;7.15;;
29848;SDS011;16728;50.832;5.590;2024-03-23T06:37:45;17.95;;;7.88;;
29848;SDS011;16728;50.832;5.590;2024-03-23T06:40:46;19.17;;;7.53;;
29848;SDS011;16728;50.832;5.590;2024-03-23T06:43:50;14.70;;;7.82;;
29848;SDS011;16728;50.832;5.590;2024-03-23T06:46:52;14.30;;;7.90;;
29848;SDS011;16728;50.832;5.590;2024-03-23T06:49:53;18.50;;;8.07;;
29848;SDS011;16728;50.832;5.590;2024-03-23T06:52:54;19.60;;;7.55;;
29848;SDS011;16728;50.832;5.590;2024-03-23T06:55:56;21.60;;;8.48;;
29848;SDS011;16728;50.832;5.590;2024-03-23T06:58:58;14.98;;;8.07;;
29848;SDS011;16728;50.832;5.590;2024-03-23T07:01:59;14.20;;;7.13;;
29848;SDS011;16728;50.832;5.590;2024-03-23T07:05:00;14.90;;;6.85;;
29848;SDS011;16728;50.832;5.590;2024-03-23T07:08:02;18.15;;;6.90;;
29848;SDS011;16728;50.832;5.590;2024-03-23T07:11:03;14.05;;;6.85;;
29848;SDS011;16728;50.832;5.590;2024-03-23T07:14:05;14.23;;;6.28;;
29848;SDS011;16728;50.832;5.590;2024-03-23T07:17:06;16.13;;;7.85;;
29848;SDS011;16728;50.832;5.590;2024-03-23T07:20:07;13.98;;;5.53;;
29848;SDS011;16728;50.832;5.590;2024-03-23T07:23:10;12.15;;;4.72;;
29848;SDS011;16728;50.832;5.590;2024-03-23T07:26:12;12.68;;;5.55;;
29848;SDS011;16728;50.832;5.590;2024-03-23T07:29:13;12.25;;;4.82;;
29848;SDS011;16728;50.832;5.590;2024-03-23T07:32:15;12.77;;;4.18;;
29848;SDS011;16728;50.832;5.590;2024-03-23T07:35:17;12.50;;;4.13;;
29848;SDS011;16728;50.832;5.590;2024-03-23T07:38:21;11.57;;;4.28;;
29848;SDS011;16728;50.832;5.590;2024-03-23T07:41:22;15.43;;;5.03;;
29848;SDS011;16728;50.832;5.590;2024-03-23T07:44:23;13.20;;;4.40;;
29848;SDS011;16728;50.832;5.590;2024-03-23T07:47:25;16.48;;;5.55;;
29848;SDS011;16728;50.832;5.590;2024-03-23T07:50:26;12.50;;;4.25;;
29848;SDS011;16728;50.832;5.590;2024-03-23T07:53:28;12.15;;;4.20;;
29848;SDS011;16728;50.832;5.590;2024-03-23T07:56:29;11.35;;;4.05;;
29848;SDS011;16728;50.832;5.590;2024-03-23T07:59:31;12.90;;;4.20;;
29848;SDS011;16728;50.832;5.590;2024-03-23T08:02:34;13.98;;;4.35;;
29848;SDS011;16728;50.832;5.590;2024-03-23T08:05:35;9.63;;;3.88;;
29848;SDS011;16728;50.832;5.590;2024-03-23T08:08:36;10.57;;;3.50;;
29848;SDS011;16728;50.832;5.590;2024-03-23T08:11:38;13.82;;;6.13;;
29848;SDS011;16728;50.832;5.590;2024-03-23T08:14:39;15.30;;;3.40;;
29848;SDS011;16728;50.832;5.590;2024-03-23T08:17:41;12.13;;;3.63;;
29848;SDS011;16728;50.832;5.590;2024-03-23T08:20:43;11.23;;;3.53;;
29848;SDS011;16728;50.832;5.590;2024-03-23T08:23:44;12.20;;;3.58;;
29848;SDS011;16728;50.832;5.590;2024-03-23T08:26:45;13.90;;;3.47;;
29848;SDS011;16728;50.832;5.590;2024-03-23T08:29:46;14.77;;;3.97;;
29848;SDS011;16728;50.832;5.590;2024-03-23T08:32:48;11.07;;;3.78;;
29848;SDS011;16728;50.832;5.590;2024-03-23T08:35:53;18.08;;;4.00;;
29848;SDS011;16728;50.832;5.590;2024-03-23T08:38:55;14.15;;;3.60;;
29848;SDS011;16728;50.832;5.590;2024-03-23T08:41:56;15.48;;;3.08;;
29848;SDS011;16728;50.832;5.590;2024-03-23T08:44:58;11.82;;;2.63;;
29848;SDS011;16728;50.832;5.590;2024-03-23T08:47:59;9.63;;;3.25;;
29848;SDS011;16728;50.832;5.590;2024-03-23T08:51:04;9.30;;;2.78;;
29848;SDS011;16728;50.832;5.590;2024-03-23T08:54:05;9.27;;;1.92;;
29848;SDS011;16728;50.832;5.590;2024-03-23T08:57:06;7.15;;;2.95;;
29848;SDS011;16728;50.832;5.590;2024-03-23T09:00:08;3.97;;;1.45;;
29848;SDS011;16728;50.832;5.590;2024-03-23T09:06:14;6.85;;;1.73;;
29848;SDS011;16728;50.832;5.590;2024-03-23T09:09:15;4.65;;;1.92;;
29848;SDS011;16728;50.832;5.590;2024-03-23T09:12:16;6.03;;;1.83;;
29848;SDS011;16728;50.832;5.590;2024-03-23T09:15:18;7.90;;;3.30;;
29848;SDS011;16728;50.832;5.590;2024-03-23T09:18:19;6.65;;;1.90;;
29848;SDS011;16728;50.832;5.590;2024-03-23T09:24:31;7.03;;;2.45;;
29848;SDS011;16728;50.832;5.590;2024-03-23T09:27:32;7.97;;;2.97;;
29848;SDS011;16728;50.832;5.590;2024-03-23T09:30:41;7.03;;;2.78;;
29848;SDS011;16728;50.832;5.590;2024-03-23T09:33:43;11.30;;;3.38;;
29848;SDS011;16728;50.832;5.590;2024-03-23T09:36:44;6.47;;;2.70;;
29848;SDS011;16728;50.832;5.590;2024-03-23T09:39:46;9.43;;;2.58;;
29848;SDS011;16728;50.832;5.590;2024-03-23T09:46:10;10.10;;;2.67;;
29848;SDS011;16728;50.832;5.590;2024-03-23T09:49:12;13.65;;;2.35;;
29848;SDS011;16728;50.832;5.590;2024-03-23T09:52:13;7.97;;;2.55;;
29848;SDS011;16728;50.832;5.590;2024-03-23T09:55:15;9.57;;;2.60;;
29848;SDS011;16728;50.832;5.590;2024-03-23T09:58:19;9.00;;;2.65;;
29848;SDS011;16728;50.832;5.590;2024-03-23T10:01:21;11.35;;;2.22;;
29848;SDS011;16728;50.832;5.590;2024-03-23T10:04:35;12.63;;;2.88;;
29848;SDS011;16728;50.832;5.590;2024-03-23T10:07:37;8.05;;;2.10;;
29848;SDS011;16728;50.832;5.590;2024-03-23T10:10:38;8.40;;;2.60;;
29848;SDS011;16728;50.832;5.590;2024-03-23T10:13:41;10.07;;;2.33;;
29848;SDS011;16728;50.832;5.590;2024-03-23T10:16:43;5.25;;;2.00;;
29848;SDS011;16728;50.832;5.590;2024-03-23T10:19:47;9.23;;;2.72;;
29848;SDS011;16728;50.832;5.590;2024-03-23T10:22:50;8.50;;;2.60;;
29848;SDS011;16728;50.832;5.590;2024-03-23T10:29:16;5.10;;;2.42;;
29848;SDS011;16728;50.832;5.590;2024-03-23T10:32:18;9.13;;;2.78;;
29848;SDS011;16728;50.832;5.590;2024-03-23T10:35:20;12.45;;;2.45;;
29848;SDS011;16728;50.832;5.590;2024-03-23T10:38:24;18.67;;;6.65;;
29848;SDS011;16728;50.832;5.590;2024-03-23T10:41:27;8.32;;;2.28;;
29848;SDS011;16728;50.832;5.590;2024-03-23T10:44:30;9.18;;;2.92;;
29848;SDS011;16728;50.832;5.590;2024-03-23T10:47:31;6.25;;;1.90;;
29848;SDS011;16728;50.832;5.590;2024-03-23T10:50:33;7.72;;;2.33;;
29848;SDS011;16728;50.832;5.590;2024-03-23T10:53:34;11.43;;;2.17;;
29848;SDS011;16728;50.832;5.590;2024-03-23T10:56:37;6.22;;;1.85;;
29848;SDS011;16728;50.832;5.590;2024-03-23T10:59:40;5.18;;;1.98;;
29848;SDS011;16728;50.832;5.590;2024-03-23T11:02:41;8.05;;;2.15;;
29848;SDS011;16728;50.832;5.590;2024-03-23T11:05:49;11.48;;;2.72;;
29848;SDS011;16728;50.832;5.590;2024-03-23T11:08:50;6.53;;;2.35;;
29848;SDS011;16728;50.832;5.590;2024-03-23T11:11:51;5.55;;;1.92;;
29848;SDS011;16728;50.832;5.590;2024-03-23T11:15:04;5.93;;;2.20;;
29848;SDS011;16728;50.832;5.590;2024-03-23T11:18:06;10.00;;;2.25;;
29848;SDS011;16728;50.832;5.590;2024-03-23T11:21:51;6.40;;;1.98;;
29848;SDS011;16728;50.832;5.590;2024-03-23T11:24:33;3.55;;;1.88;;
29848;SDS011;16728;50.832;5.590;2024-03-23T11:27:34;4.82;;;1.80;;
29848;SDS011;16728;50.832;5.590;2024-03-23T11:30:35;4.82;;;1.90;;
29848;SDS011;16728;50.832;5.590;2024-03-23T11:33:38;5.82;;;2.05;;
29848;SDS011;16728;50.832;5.590;2024-03-23T11:36:40;5.72;;;1.90;;
29848;SDS011;16728;50.832;5.590;2024-03-23T11:39:41;7.28;;;2.70;;
29848;SDS011;16728;50.832;5.590;2024-03-23T11:42:42;9.18;;;2.10;;
29848;SDS011;16728;50.832;5.590;2024-03-23T11:45:45;5.70;;;1.60;;
29848;SDS011;16728;50.832;5.590;2024-03-23T11:48:49;3.27;;;1.20;;
29848;SDS011;16728;50.832;5.590;2024-03-23T11:51:51;4.97;;;1.75;;
29848;SDS011;16728;50.832;5.590;2024-03-23T11:55:04;7.47;;;1.90;;
29848;SDS011;16728;50.832;5.590;2024-03-23T11:58:07;4.47;;;1.60;;
29848;SDS011;16728;50.832;5.590;2024-03-23T12:01:10;4.75;;;1.63;;
29848;SDS011;16728;50.832;5.590;2024-03-23T12:04:11;6.97;;;1.95;;
29848;SDS011;16728;50.832;5.590;2024-03-23T12:07:16;5.10;;;1.42;;
29848;SDS011;16728;50.832;5.590;2024-03-23T12:10:19;5.78;;;1.80;;
29848;SDS011;16728;50.832;5.590;2024-03-23T12:13:21;5.22;;;1.40;;
29848;SDS011;16728;50.832;5.590;2024-03-23T12:16:24;6.38;;;1.83;;
29848;SDS011;16728;50.832;5.590;2024-03-23T12:19:27;7.25;;;1.95;;
29848;SDS011;16728;50.832;5.590;2024-03-23T12:22:29;4.80;;;1.60;;
29848;SDS011;16728;50.832;5.590;2024-03-23T12:25:30;4.75;;;1.50;;
29848;SDS011;16728;50.832;5.590;2024-03-23T12:28:32;5.95;;;1.70;;
29848;SDS011;16728;50.832;5.590;2024-03-23T12:31:33;5.13;;;1.88;;
29848;SDS011;16728;50.832;5.590;2024-03-23T12:34:34;2.58;;;1.50;;
29848;SDS011;16728;50.832;5.590;2024-03-23T12:37:36;8.23;;;1.67;;
29848;SDS011;16728;50.832;5.590;2024-03-23T12:40:37;4.45;;;1.60;;
29848;SDS011;16728;50.832;5.590;2024-03-23T12:43:38;3.25;;;1.10;;
29848;SDS011;16728;50.832;5.590;2024-03-23T12:46:39;2.92;;;1.52;;
29848;SDS011;16728;50.832;5.590;2024-03-23T12:49:41;3.65;;;1.17;;
29848;SDS011;16728;50.832;5.590;2024-03-23T12:52:42;4.20;;;1.27;;
29848;SDS011;16728;50.832;5.590;2024-03-23T12:55:44;3.83;;;1.33;;
29848;SDS011;16728;50.832;5.590;2024-03-23T12:58:45;3.63;;;1.45;;
29848;SDS011;16728;50.832;5.590;2024-03-23T13:01:51;3.33;;;1.52;;
29848;SDS011;16728;50.832;5.590;2024-03-23T13:04:52;4.90;;;1.25;;
29848;SDS011;16728;50.832;5.590;2024-03-23T13:07:54;3.22;;;1.10;;
29848;SDS011;16728;50.832;5.590;2024-03-23T13:10:56;7.00;;;1.67;;
29848;SDS011;16728;50.832;5.590;2024-03-23T13:13:58;7.38;;;1.00;;
29848;SDS011;16728;50.832;5.590;2024-03-23T13:16:59;4.32;;;1.38;;
29848;SDS011;16728;50.832;5.590;2024-03-23T13:20:01;3.03;;;1.15;;
29848;SDS011;16728;50.832;5.590;2024-03-23T13:23:04;2.73;;;1.47;;
29848;SDS011;16728;50.832;5.590;2024-03-23T13:26:05;8.05;;;1.50;;
29848;SDS011;16728;50.832;5.590;2024-03-23T13:29:08;4.30;;;1.17;;
29848;SDS011;16728;50.832;5.590;2024-03-23T13:32:09;4.60;;;1.15;;
29848;SDS011;16728;50.832;5.590;2024-03-23T13:35:10;4.32;;;1.20;;
29848;SDS011;16728;50.832;5.590;2024-03-23T13:38:11;4.70;;;2.22;;
29848;SDS011;16728;50.832;5.590;2024-03-23T13:41:13;4.35;;;1.30;;
29848;SDS011;16728;50.832;5.590;2024-03-23T13:44:17;4.63;;;1.65;;
29848;SDS011;16728;50.832;5.590;2024-03-23T13:47:18;5.38;;;1.27;;
29848;SDS011;16728;50.832;5.590;2024-03-23T13:50:19;3.83;;;1.30;;
29848;SDS011;16728;50.832;5.590;2024-03-23T13:53:27;3.08;;;1.10;;
29848;SDS011;16728;50.832;5.590;2024-03-23T13:56:28;2.10;;;0.77;;
29848;SDS011;16728;50.832;5.590;2024-03-23T13:59:29;5.93;;;1.50;;
29848;SDS011;16728;50.832;5.590;2024-03-23T14:02:30;5.10;;;1.10;;
29848;SDS011;16728;50.832;5.590;2024-03-23T14:05:32;4.13;;;0.85;;
29848;SDS011;16728;50.832;5.590;2024-03-23T14:08:34;3.60;;;1.40;;
29848;SDS011;16728;50.832;5.590;2024-03-23T14:11:36;3.00;;;1.20;;
29848;SDS011;16728;50.832;5.590;2024-03-23T14:14:37;6.22;;;1.30;;
29848;SDS011;16728;50.832;5.590;2024-03-23T14:17:38;2.22;;;1.00;;
29848;SDS011;16728;50.832;5.590;2024-03-23T14:20:40;7.10;;;1.20;;
29848;SDS011;16728;50.832;5.590;2024-03-23T14:23:41;6.90;;;1.45;;
29848;SDS011;16728;50.832;5.590;2024-03-23T14:26:42;4.32;;;1.52;;
29848;SDS011;16728;50.832;5.590;2024-03-23T14:29:47;3.58;;;0.88;;
29848;SDS011;16728;50.832;5.590;2024-03-23T14:32:48;5.07;;;1.40;;
29848;SDS011;16728;50.832;5.590;2024-03-23T14:35:51;5.95;;;1.30;;
29848;SDS011;16728;50.832;5.590;2024-03-23T14:38:53;3.13;;;0.98;;
29848;SDS011;16728;50.832;5.590;2024-03-23T14:41:54;3.33;;;1.20;;
29848;SDS011;16728;50.832;5.590;2024-03-23T14:44:56;3.05;;;1.10;;
29848;SDS011;16728;50.832;5.590;2024-03-23T14:47:58;4.03;;;1.20;;
29848;SDS011;16728;50.832;5.590;2024-03-23T14:51:01;5.82;;;1.15;;
29848;SDS011;16728;50.832;5.590;2024-03-23T14:54:05;5.53;;;1.40;;
29848;SDS011;16728;50.832;5.590;2024-03-23T14:57:06;7.07;;;1.42;;
29848;SDS011;16728;50.832;5.590;2024-03-23T15:00:10;5.63;;;1.43;;
29848;SDS011;16728;50.832;5.590;2024-03-23T15:03:12;3.38;;;1.55;;
29848;SDS011;16728;50.832;5.590;2024-03-23T15:06:13;4.45;;;1.25;;
29848;SDS011;16728;50.832;5.590;2024-03-23T15:09:21;5.43;;;1.55;;
29848;SDS011;16728;50.832;5.590;2024-03-23T15:12:25;5.30;;;1.25;;
29848;SDS011;16728;50.832;5.590;2024-03-23T15:15:26;3.67;;;1.17;;
29848;SDS011;16728;50.832;5.590;2024-03-23T15:18:28;4.50;;;1.08;;
29848;SDS011;16728;50.832;5.590;2024-03-23T15:21:30;6.68;;;1.70;;
29848;SDS011;16728;50.832;5.590;2024-03-23T15:24:31;4.65;;;1.30;;
29848;SDS011;16728;50.832;5.590;2024-03-23T15:27:34;3.50;;;1.30;;
29848;SDS011;16728;50.832;5.590;2024-03-23T15:30:35;8.02;;;1.90;;
29848;SDS011;16728;50.832;5.590;2024-03-23T15:33:36;5.28;;;1.60;;
29848;SDS011;16728;50.832;5.590;2024-03-23T15:36:39;2.50;;;1.20;;
29848;SDS011;16728;50.832;5.590;2024-03-23T15:39:41;4.47;;;1.10;;
29848;SDS011;16728;50.832;5.590;2024-03-23T15:42:42;3.83;;;1.35;;
29848;SDS011;16728;50.832;5.590;2024-03-23T15:45:43;4.05;;;1.17;;
29848;SDS011;16728;50.832;5.590;2024-03-23T15:48:45;6.28;;;1.35;;
29848;SDS011;16728;50.832;5.590;2024-03-23T15:51:47;3.25;;;0.90;;
29848;SDS011;16728;50.832;5.590;2024-03-23T15:54:48;3.30;;;1.02;;
29848;SDS011;16728;50.832;5.590;2024-03-23T15:57:49;3.90;;;1.30;;
29848;SDS011;16728;50.832;5.590;2024-03-23T16:01:04;4.50;;;1.20;;
29848;SDS011;16728;50.832;5.590;2024-03-23T16:04:06;2.65;;;1.20;;
29848;SDS011;16728;50.832;5.590;2024-03-23T16:07:07;5.72;;;1.20;;
29848;SDS011;16728;50.832;5.590;2024-03-23T16:10:08;3.88;;;0.98;;
29848;SDS011;16728;50.832;5.590;2024-03-23T16:13:12;4.65;;;1.05;;
29848;SDS011;16728;50.832;5.590;2024-03-23T16:16:13;4.93;;;1.20;;
29848;SDS011;16728;50.832;5.590;2024-03-23T16:19:16;5.80;;;1.48;;
29848;SDS011;16728;50.832;5.590;2024-03-23T16:22:17;14.57;;;1.95;;
29848;SDS011;16728;50.832;5.590;2024-03-23T16:25:18;4.22;;;1.15;;
29848;SDS011;16728;50.832;5.590;2024-03-23T16:28:20;2.72;;;1.00;;
29848;SDS011;16728;50.832;5.590;2024-03-23T16:34:42;3.22;;;0.93;;
29848;SDS011;16728;50.832;5.590;2024-03-23T16:37:45;4.60;;;1.48;;
29848;SDS011;16728;50.832;5.590;2024-03-23T16:43:55;4.97;;;1.35;;
29848;SDS011;16728;50.832;5.590;2024-03-23T16:46:57;4.38;;;1.25;;
29848;SDS011;16728;50.832;5.590;2024-03-23T16:49:58;5.15;;;1.10;;
29848;SDS011;16728;50.832;5.590;2024-03-23T16:52:59;4.10;;;1.10;;
29848;SDS011;16728;50.832;5.590;2024-03-23T16:56:04;4.57;;;1.10;;
29848;SDS011;16728;50.832;5.590;2024-03-23T16:59:07;15.70;;;1.92;;
29848;SDS011;16728;50.832;5.590;2024-03-23T17:02:08;4.13;;;1.10;;
29848;SDS011;16728;50.832;5.590;2024-03-23T17:05:10;8.52;;;2.63;;
29848;SDS011;16728;50.832;5.590;2024-03-23T17:08:11;5.45;;;1.80;;
29848;SDS011;16728;50.832;5.590;2024-03-23T17:11:13;5.03;;;1.35;;
29848;SDS011;16728;50.832;5.590;2024-03-23T17:14:14;7.50;;;2.03;;
29848;SDS011;16728;50.832;5.590;2024-03-23T17:17:16;5.57;;;2.10;;
29848;SDS011;16728;50.832;5.590;2024-03-23T17:20:17;5.68;;;2.13;;
29848;SDS011;16728;50.832;5.590;2024-03-23T17:23:25;4.90;;;1.85;;
29848;SDS011;16728;50.832;5.590;2024-03-23T17:26:27;3.75;;;1.77;;
29848;SDS011;16728;50.832;5.590;2024-03-23T17:29:28;5.18;;;1.95;;
29848;SDS011;16728;50.832;5.590;2024-03-23T17:32:30;6.55;;;2.08;;
29848;SDS011;16728;50.832;5.590;2024-03-23T17:35:31;5.32;;;2.08;;
29848;SDS011;16728;50.832;5.590;2024-03-23T17:38:33;7.68;;;4.15;;
29848;SDS011;16728;50.832;5.590;2024-03-23T17:41:36;8.40;;;4.90;;
29848;SDS011;16728;50.832;5.590;2024-03-23T17:44:37;9.18;;;3.90;;
29848;SDS011;16728;50.832;5.590;2024-03-23T17:47:39;10.23;;;4.00;;
29848;SDS011;16728;50.832;5.590;2024-03-23T17:50:40;5.38;;;2.50;;
29848;SDS011;16728;50.832;5.590;2024-03-23T17:53:42;8.13;;;2.60;;
29848;SDS011;16728;50.832;5.590;2024-03-23T17:56:43;7.78;;;2.42;;
29848;SDS011;16728;50.832;5.590;2024-03-23T17:59:45;9.77;;;2.50;;
29848;SDS011;16728;50.832;5.590;2024-03-23T18:02:48;8.63;;;3.25;;
29848;SDS011;16728;50.832;5.590;2024-03-23T18:05:49;6.95;;;2.65;;
29848;SDS011;16728;50.832;5.590;2024-03-23T18:08:51;4.75;;;2.05;;
29848;SDS011;16728;50.832;5.590;2024-03-23T18:11:52;4.18;;;1.67;;
29848;SDS011;16728;50.832;5.590;2024-03-23T18:14:54;6.68;;;2.15;;
29848;SDS011;16728;50.832;5.590;2024-03-23T18:17:57;5.00;;;1.20;;
29848;SDS011;16728;50.832;5.590;2024-03-23T18:21:03;6.90;;;1.83;;
29848;SDS011;16728;50.832;5.590;2024-03-23T18:24:05;8.13;;;1.50;;
29848;SDS011;16728;50.832;5.590;2024-03-23T18:27:06;4.25;;;1.70;;
29848;SDS011;16728;50.832;5.590;2024-03-23T18:30:09;4.93;;;1.73;;
29848;SDS011;16728;50.832;5.590;2024-03-23T18:33:11;4.70;;;1.58;;
29848;SDS011;16728;50.832;5.590;2024-03-23T18:36:12;7.90;;;2.00;;
29848;SDS011;16728;50.832;5.590;2024-03-23T18:39:14;5.65;;;1.92;;
29848;SDS011;16728;50.832;5.590;2024-03-23T18:42:15;6.88;;;2.30;;
29848;SDS011;16728;50.832;5.590;2024-03-23T18:45:17;6.80;;;2.10;;
29848;SDS011;16728;50.832;5.590;2024-03-23T18:48:18;9.15;;;2.88;;
29848;SDS011;16728;50.832;5.590;2024-03-23T18:51:20;6.65;;;2.45;;
29848;SDS011;16728;50.832;5.590;2024-03-23T18:54:21;7.07;;;2.55;;
29848;SDS011;16728;50.832;5.590;2024-03-23T18:57:23;9.20;;;2.10;;
29848;SDS011;16728;50.832;5.590;2024-03-23T19:00:24;5.63;;;2.25;;
29848;SDS011;16728;50.832;5.590;2024-03-23T19:03:26;7.78;;;2.33;;
29848;SDS011;16728;50.832;5.590;2024-03-23T19:10:21;18.85;;;9.77;;
29848;SDS011;16728;50.832;5.590;2024-03-23T19:13:26;22.88;;;11.98;;
29848;SDS011;16728;50.832;5.590;2024-03-23T19:16:27;17.17;;;9.00;;
29848;SDS011;16728;50.832;5.590;2024-03-23T19:19:33;15.35;;;8.30;;
29848;SDS011;16728;50.832;5.590;2024-03-23T19:22:35;14.20;;;7.20;;
29848;SDS011;16728;50.832;5.590;2024-03-23T19:25:36;19.45;;;6.88;;
29848;SDS011;16728;50.832;5.590;2024-03-23T19:28:39;8.32;;;3.60;;
29848;SDS011;16728;50.832;5.590;2024-03-23T19:31:40;10.05;;;3.53;;
29848;SDS011;16728;50.832;5.590;2024-03-23T19:34:48;8.85;;;2.53;;